CheckWX is a tool to help pilots better visualize weather data.  It is not intended as a substitute for an official pre-flight weather briefing.

09:29:46 UTC

KPRG METAR
Edgar County Airport
Paris, Illinois, USA
Current

35 mins ago

KPRG 200855Z AUTO 06010KT 4SM TSUP BKN006 BKN011 OVC039 01/00 A3006 RMK AO2 LTG DSNT SE AND S P0005 60006 T00080000
Observed
Feb-20 @ 08:55 UTC
Wind
  • 060° at 10 KTS
Visibility
6,437 meters
Flight Rules
IFR
Conditions
Thunderstorm, Unknown precipitation
Cloud Levels
  • Broken at 600' AGL
  • Broken at 1,100' AGL
  • Overcast at 3,900' AGL
Temperature
C / 34°F
Dewpoint
C / 32°F
Humidity
93%
Altimeter
30.06" Hg
Pressure
1017.92 hPa
Current Rain
0.05"
Previous

55 mins ago

KPRG 200835Z AUTO 06008KT 4SM UP BKN008 BKN019 OVC043 01/00 A3008 RMK AO2 LTG DSNT E P0003 T00080000
Observed
Feb-20 @ 08:35 UTC
Wind
  • 060° at 8 KTS
Visibility
6,437 meters
Flight Rules
IFR
Conditions
Unknown precipitation
Cloud Levels
  • Broken at 800' AGL
  • Broken at 1,900' AGL
  • Overcast at 4,300' AGL
Temperature
C / 34°F
Dewpoint
C / 32°F
Humidity
93%
Altimeter
30.08" Hg
Pressure
1018.62 hPa
Current Rain
0.03"
Previous

1 hour ago

KPRG 200815Z AUTO 08009KT 5SM UP BKN008 BKN019 OVC036 01/00 A3010 RMK AO2 LTG DSNT SE AND S T00061001
Observed
Feb-20 @ 08:15 UTC
Wind
  • 080° at 9 KTS
Visibility
8,047 meters
Flight Rules
IFR
Conditions
Unknown precipitation
Cloud Levels
  • Broken at 800' AGL
  • Broken at 1,900' AGL
  • Overcast at 3,600' AGL
Temperature
C / 34°F
Dewpoint
-0°C / 32°F
Humidity
93%
Altimeter
30.1" Hg
Pressure
1019.32 hPa